Overton, Nevada Weather observations

Data are for observation ending at time listed.
 Day   Time    Ave.   Ave.  Ave.  Vector   Max.   Stn.    Total    Solar   Ave.  
  of    of     Air    Rel.  Wind   Wind    Wind   Baro.  Precip.   Rad.    Soil  
Year   Day     Temp.  Hum.  Speed  Dir.    Gust   Pres.                    Temp. 
2016   (PST)    F      %     mph   deg.    mph     mb.     in.     W/m2     F   
------------------------------------------------------------------------------
  40   21:00   58.1    32    5.3   293      9.6   976.2    0.00       0    55.1
  40   21:10   56.7    36    4.6   304      6.9   976.3    0.00       0    55.0
  40   21:20   55.0    40    5.2   294      8.2   976.4    0.00       0    54.9
  40   21:30   54.3    41    4.9   300      7.5   976.5    0.00       0    54.7
  40   21:40   53.0    43    4.8   299      6.9   976.5    0.00       0    54.5
  40   21:50   51.5    46    3.6   306      4.8   976.5    0.00       0    54.3
  40   22:00   51.1    45    3.7   302      5.3   976.5    0.00       0    54.1
  40   22:10   52.9    40    2.8   268      5.3   976.5    0.00       0    53.9
  40   22:20   53.7    39    2.7   290      4.7   976.5    0.00       0    53.7
  40   22:30   52.7    40    2.6   290      5.2   976.5    0.00       0    53.5
  40   22:40   52.1    42    1.5   276      3.1   976.7    0.00       0    53.3
  40   22:50   50.7    45    2.6   287      3.9   976.7    0.00       0    53.1
  40   23:00   50.1    46    3.8   309      5.1   976.7    0.00       0    52.9
  40   23:10   47.6    51    4.0   308      5.3   976.6    0.00       0    52.7
  40   23:20   49.8    46    3.5   284      5.2   976.5    0.00       0    52.5
  40   23:30   50.0    47    3.4   294      5.0   976.4    0.00       0    52.4
  40   23:40   49.0    49    3.8   318      6.1   976.5    0.00       0    52.2
  40   23:50   47.9    52    4.8   331      6.3   976.6    0.00       0    52.0
  41    0:00   48.3    51    3.7   317      6.6   976.6    0.00       0    51.8
  41    0:10   48.7    51    4.5   320      7.2   976.4    0.00       0    51.7
  41    0:20   48.6    51    2.2   272      4.2   976.2    0.00       0    51.5
  41    0:30   48.7    51    3.0   265      6.2   976.1    0.00       0    51.4
  41    0:40   48.4    52    1.7   341      4.0   975.9    0.00       0    51.2
  41    0:50   47.3    53    2.6   322      3.9   975.8    0.00       0    51.1
  41    1:00   46.9    54    1.0   282      2.6   975.9    0.00       0    50.9
  41    1:10   45.9    56    3.2   323      5.2   975.9    0.00       0    50.7
  41    1:20   43.7    60    4.1   336      5.9   975.8    0.00       0    50.6
  41    1:30   44.4    59    3.2   311      6.1   975.8    0.00       0    50.4
  41    1:40   45.3    57    4.8   312      7.2   975.8    0.00       0    50.2
  41    1:50   47.3    51    4.6   310      6.4   975.9    0.00       0    50.0
  41    2:00   47.1    52    4.1   304      5.8   976.0    0.00       0    49.9
  41    2:10   47.1    53    4.1   293      5.6   976.2    0.00       0    49.8
  41    2:20   47.0    53    3.0   280      4.4   976.1    0.00       0    49.7
  41    2:30   47.5    52    2.0   274      3.7   976.2    0.00       0    49.6
  41    2:40   47.8    51    2.9   271      4.8   976.2    0.00       0    49.5
  41    2:50   47.1    53    1.9   290      3.2   976.2    0.00       0    49.5
  41    3:00   46.7    54    1.3   272      4.5   976.1    0.00       0    49.4
  41    3:10   46.8    53    2.6   268      4.6   976.2    0.00       0    49.3
  41    3:20   46.7    54    1.6   262      4.8   976.2    0.00       0    49.2
  41    3:30   47.5    52    2.8   275      4.2   976.2    0.00       0    49.2
  41    3:40   47.7    51    2.6   279      4.2   976.3    0.00       0    49.0
  41    3:50   47.2    52    3.7   290      7.3   976.4    0.00       0    48.9
  41    4:00   46.9    53    3.7   300      7.1   976.6    0.00       0    48.8
  41    4:10   46.7    53    3.9   300      5.8   976.8    0.00       0    48.7
  41    4:20   46.2    54    2.8   290      4.9   976.9    0.00       0    48.6
  41    4:30   46.8    52    3.4   278      5.0   977.0    0.00       0    48.5
  41    4:40   46.3    54    3.9   290      5.6   977.1    0.00       0    48.4
  41    4:50   45.9    55    3.2   287      4.7   977.2    0.00       0    48.3
  41    5:00   46.5    54    3.8   295      5.6   977.2    0.00       0    48.2
  41    5:10   46.0    55    3.6   294      5.5   977.2    0.00       0    48.2
  41    5:20   45.5    56    3.5   297      4.9   977.2    0.00       0    48.1
  41    5:30   45.8    55    3.3   273      5.6   977.3    0.00       0    48.1
  41    5:40   46.0    55    3.4   273      5.4   977.4    0.00       0    48.0
  41    5:50   45.8    56    3.4   282      5.8   977.5    0.00       0    47.9
  41    6:00   46.2    54    3.0   282      4.5   977.5    0.00       0    47.8
  41    6:10   43.8    60    3.5   321      4.5   977.5    0.00       0    47.7
  41    6:20   42.5    63    2.6   297      4.3   977.5    0.00       0    47.6
  41    6:30   43.0    61    1.6   276      3.2   977.6    0.00       1    47.4
  41    6:40   43.4    61    2.7   282      5.4   977.7    0.00       6    47.3
  41    6:50   44.4    58    2.1   264      3.6   977.6    0.00      11    47.2
  41    7:00   45.2    56    2.1   266      3.6   977.7    0.00      14    47.1
  41    7:10   45.3    56    1.3   278      3.2   977.8    0.00      39    47.1
  41    7:20   45.7    56    2.1   270      4.1   977.9    0.00      55    47.1
  41    7:30   47.4    52    3.1   272      6.1   978.0    0.00      99    47.1
  41    7:40   48.8    50    4.0   285      5.9   978.1    0.00     149    47.4
  41    7:50   49.9    48    4.1   284      6.3   978.4    0.00     181    48.0
  41    8:00   50.8    47    4.5   292      7.2   978.7    0.00     209    48.7
  41    8:10   51.6    45    4.8   308      8.2   978.9    0.00     204    49.4
  41    8:20   52.2    42    6.3   318      9.8   979.2    0.00     212    50.0
  41    8:30   52.4    42    6.0   319      9.0   979.3    0.00     175    50.4
  41    8:40   52.7    41    6.9   328     10.4   979.3    0.00     115    50.7
  41    8:50   53.4    40    8.1   326     12.2   979.3    0.00     148    51.1
  41    9:00   54.2    39    6.7   327     11.0   979.3    0.00     281    51.4
  41    9:10   55.1    37    8.1   333     11.6   979.5    0.00     267    51.9
  41    9:20   55.4    37    7.4   326     11.1   979.6    0.00     338    52.3
  41    9:30   56.3    36    8.3   333     11.9   979.7    0.00     294    52.8
  41    9:40   56.7    36    8.9   336     12.5   979.8    0.00     430    53.2
  41    9:50   58.2    34    8.0   333     10.6   979.8    0.00     483    53.6
  41   10:00   59.0    33    8.0   343     12.4   980.0    0.00     464    54.1
  41   10:10   59.8    32    8.0   340     12.2   980.0    0.00     406    54.4
  41   10:20   60.4    32    7.4   340     10.7   980.1    0.00     449    54.5
  41   10:30   61.9    30    6.0   331      9.0   980.1    0.00     522    54.6
  41   10:40   62.6    29    6.8   345      9.9   980.1    0.00     528    54.7
  41   10:50   63.4    27    6.3   353      9.1   980.0    0.00     423    54.8
  41   11:00   64.4    25    3.4   358      7.5   979.9    0.00     477    54.9
  41   11:10   65.4    24    3.4    20      7.1   979.8    0.00     500    54.9
  41   11:20   65.9    23    3.6    30      6.4   979.8    0.00     515    54.9
  41   11:30   66.1    22    3.0    51      5.7   979.6    0.00     531    55.0
  41   11:40   66.4    22    2.9    10      6.3   979.4    0.00     600    55.0
  41   11:50   67.2    21    2.1    58      4.5   979.3    0.00     596    55.1
  41   12:00   68.4    21    1.3    11      4.5   979.2    0.00     457    55.2
  41   12:10   68.3    22    2.4   344      5.6   979.0    0.00     362    55.2
  41   12:20   68.5    21    2.2   276      4.7   978.6    0.00     342    55.3
  41   12:30   69.2    20    1.6   339      4.4   978.2    0.00     601    55.4
  41   12:40   70.6    19    2.3   188      7.8   978.0    0.00     596    55.5
  41   12:50   69.7    20    3.0   159      5.0   977.8    0.00     588    55.6
  41   13:00   69.7    20    2.5   233      5.1   977.8    0.00     579    55.8
  41   13:10   69.9    20    2.9   277      5.7   977.7    0.00     570    56.0
  41   13:20   70.7    19    1.2   322      2.8   977.5    0.00     558    56.2
  41   13:30   71.7    18    2.0   290      6.1   977.5    0.00     544    56.3
  41   13:40   71.5    18    2.3   320      6.4   977.5    0.00     529    56.5
  41   13:50   71.4    19    2.9   299      8.3   977.5    0.00     512    56.8
  41   14:00   72.2    18    2.7   328      6.4   977.4    0.00     495    57.0
  41   14:10   71.3    19    4.1   315      6.8   977.4    0.00     474    57.2
  41   14:20   71.6    19    4.1   342      7.7   977.4    0.00     453    57.6
  41   14:30   71.9    18    1.8   304      5.1   977.3    0.00     433    57.9
  41   14:40   72.0    18    2.4   212      4.7   977.1    0.00     411    58.1
  41   14:50   71.8    18    1.3   196      3.3   977.1    0.00     386    58.3
  41   15:00   72.5    18    1.9     6      4.6   977.0    0.00     361    58.4
  41   15:10   72.8    17    1.2    29      4.2   976.9    0.00     332    58.6
  41   15:20   72.9    17    1.5    29      4.1   976.8    0.00     306    58.7
  41   15:30   72.7    17    1.0    89      3.0   976.8    0.00     279    58.8
  41   15:40   72.9    17    1.2   120      2.8   976.8    0.00     250    58.9
  41   15:50   72.5    17    1.8   198      3.3   976.7    0.00     217    59.0
  41   16:00   72.9    17    0.8   200      3.1   976.8    0.00     197    59.1
  41   16:10   73.9    16    1.0   202      2.5   976.7    0.00     169    59.1
  41   16:20   72.8    17    2.3   189      3.8   976.6    0.00     141    59.2
  41   16:30   72.4    17    1.9   202      2.9   976.5    0.00     115    59.2
  41   16:40   72.0    18    2.0   204      3.3   976.3    0.00      84    59.3
  41   16:50   71.5    18    1.9   190      2.9   976.3    0.00      54    59.3
  41   17:00   70.9    19    1.7   161      2.5   976.2    0.00      27    59.2
  41   17:10   69.4    21    0.5   166      1.8   976.0    0.00       8    59.1
  41   17:20   67.2    25    0.0     0      0.0   975.7    0.00       4    59.0
  41   17:30   64.2    29    0.2   242      1.2   975.5    0.00       0    58.8
  41   17:40   62.7    32    0.0     0      0.0   975.3    0.00       0    58.6
  41   17:50   60.3    35    0.0   316      0.1   975.3    0.00       0    58.3
  41   18:00   58.5    37    0.2   304      1.2   975.1    0.00       0    58.0
  41   18:10   57.7    38    0.3   294      1.3   975.0    0.00       0    57.7
  41   18:20   57.5    39    0.1   313      1.2   974.9    0.00       0    57.5
  41   18:30   53.5    45    1.7   332      2.4   974.8    0.00       0    57.2
  41   18:40   52.1    46    2.7   322      4.3   974.8    0.00       0    56.9
  41   18:50   52.0    48    1.8   332      3.8   974.7    0.00       0    56.6
  41   19:00   52.4    47    1.6   328      3.9   974.6    0.00       0    56.2
  41   19:10   52.8    47    0.6   322      1.8   974.6    0.00       0    56.0
  41   19:20   51.7    50    1.3   242      2.6   974.6    0.00       0    55.7
  41   19:30   52.1    49    1.3   236      2.6   974.4    0.00       0    55.5
  41   19:40   50.2    54    0.7    21      2.0   974.3    0.00       0    55.3
  41   19:50   48.9    56    0.7    10      1.9   974.3    0.00       0    55.0
  41   20:00   48.5    57    1.7   325      2.5   974.3    0.00       0    54.7
  41   20:10   47.8    57    1.8   319      2.8   974.4    0.00       0    54.5
  41   20:20   48.5    56    2.9   286      4.5   974.3    0.00       0    54.2
  41   20:30   48.6    56    2.6   308      3.8   974.3    0.00       0    54.0
  41   20:40   46.5    59    2.4   322      3.7   974.3    0.00       0    53.8
  41   20:50   45.4    61    2.3   332      3.7   974.4    0.00       0    53.5

Return to Overton, Nevada graphs page.


Western Regional Climate Center,wrcc@dri.edu